createdAt,value
2022-11-09T00:01:03.643Z,20.17
2022-11-09T00:03:31.223Z,20.00
2022-11-09T00:06:00.374Z,21.65
2022-11-09T00:08:28.564Z,20.38
2022-11-09T00:10:56.289Z,19.95
2022-11-09T00:13:23.904Z,20.85
2022-11-09T00:15:51.260Z,20.67
2022-11-09T00:18:18.677Z,20.05
2022-11-09T00:20:48.272Z,20.60
2022-11-09T00:23:19.353Z,20.80
2022-11-09T00:25:47.879Z,20.95
2022-11-09T00:28:15.527Z,20.03
2022-11-09T00:30:42.932Z,20.23
2022-11-09T00:33:12.454Z,21.10
2022-11-09T00:35:44.239Z,20.08
2022-11-09T00:38:11.563Z,20.42
2022-11-09T00:40:38.921Z,22.83
2022-11-09T00:43:06.322Z,22.45
2022-11-09T00:45:33.826Z,21.83
2022-11-09T00:48:01.570Z,20.95
2022-11-09T00:50:31.433Z,22.67
2022-11-09T00:52:58.865Z,21.47
2022-11-09T00:55:26.642Z,21.42
2022-11-09T00:57:54.734Z,21.02
2022-11-09T01:00:25.109Z,20.00
2022-11-09T01:02:53.937Z,22.48
2022-11-09T01:05:21.573Z,22.80
2022-11-09T01:07:51.401Z,23.42
2022-11-09T01:10:18.944Z,22.48
2022-11-09T01:12:47.331Z,21.55
2022-11-09T01:15:15.870Z,21.75
2022-11-09T01:17:43.349Z,21.37
2022-11-09T01:20:11.629Z,21.85
2022-11-09T01:22:39.153Z,23.30
2022-11-09T01:25:07.267Z,24.30
2022-11-09T01:27:35.425Z,24.05
2022-11-09T01:30:06.605Z,23.73
2022-11-09T01:32:34.110Z,25.20
2022-11-09T01:35:01.567Z,22.98
2022-11-09T01:37:31.441Z,23.30
2022-11-09T01:39:59.142Z,24.60
2022-11-09T01:42:26.874Z,22.73
2022-11-09T01:45:19.309Z,23.67
2022-11-09T01:48:13.782Z,23.20
2022-11-09T01:50:46.711Z,22.95
2022-11-09T01:53:19.598Z,23.00
2022-11-09T01:55:50.639Z,20.50
2022-11-09T01:58:26.315Z,21.23
2022-11-09T02:00:56.283Z,22.90
2022-11-09T02:03:33.225Z,21.65
2022-11-09T02:06:04.332Z,22.67
2022-11-09T02:08:32.071Z,23.57
2022-11-09T02:11:08.181Z,23.40
2022-11-09T02:13:38.145Z,22.10
2022-11-09T02:16:11.465Z,22.35
2022-11-09T02:18:49.220Z,21.77
2022-11-09T02:21:16.890Z,21.43
2022-11-09T02:23:44.284Z,21.33
2022-11-09T02:26:28.006Z,21.33
2022-11-09T02:28:57.357Z,24.02
2022-11-09T02:31:29.949Z,23.05
2022-11-09T02:34:07.010Z,22.07
2022-11-09T02:36:35.157Z,22.50
2022-11-09T02:39:05.075Z,23.42
2022-11-09T02:41:34.914Z,22.73
2022-11-09T02:44:02.505Z,21.20
2022-11-09T02:46:35.809Z,21.57
2022-11-09T02:49:04.465Z,21.95
2022-11-09T02:51:31.937Z,21.48
2022-11-09T02:53:59.410Z,22.02
2022-11-09T02:56:27.060Z,22.25
2022-11-09T02:58:55.527Z,23.70
2022-11-09T03:01:22.915Z,21.80
2022-11-09T03:03:50.289Z,22.40
2022-11-09T03:06:18.710Z,21.40
2022-11-09T03:08:46.726Z,22.80
2022-11-09T03:11:15.274Z,23.03
2022-11-09T03:13:43.796Z,23.85
2022-11-09T03:16:11.532Z,23.80
2022-11-09T03:18:40.269Z,22.38
2022-11-09T03:21:08.721Z,23.15
2022-11-09T03:23:36.069Z,21.77
2022-11-09T03:26:03.663Z,23.45
2022-11-09T03:28:30.988Z,21.92
2022-11-09T03:30:58.551Z,21.13
2022-11-09T03:33:26.887Z,23.40
2022-11-09T03:35:54.225Z,21.57
2022-11-09T03:38:22.410Z,21.38
2022-11-09T03:40:50.716Z,20.90
2022-11-09T03:43:18.437Z,22.52
2022-11-09T03:45:47.980Z,21.40
2022-11-09T03:48:15.268Z,22.47
2022-11-09T03:50:42.561Z,21.35
2022-11-09T03:53:10.872Z,20.98
2022-11-09T03:55:39.150Z,20.30
2022-11-09T03:58:07.599Z,22.02
2022-11-09T04:00:36.402Z,19.97
2022-11-09T04:03:03.837Z,19.45
2022-11-09T04:05:31.484Z,21.08
2022-11-09T04:07:59.164Z,20.17
2022-11-09T04:10:27.363Z,20.08
2022-11-09T04:12:55.143Z,19.57
2022-11-09T04:15:23.130Z,20.05
2022-11-09T04:18:02.224Z,20.60
2022-11-09T04:20:33.325Z,19.10
2022-11-09T04:23:02.746Z,19.77
2022-11-09T04:25:33.542Z,20.37
2022-11-09T04:28:02.173Z,19.90
2022-11-09T04:30:31.315Z,20.35
2022-11-09T04:33:00.106Z,20.25
2022-11-09T04:35:29.263Z,20.50
2022-11-09T04:38:02.928Z,20.17
2022-11-09T04:40:32.413Z,20.42
2022-11-09T04:43:01.134Z,18.42
2022-11-09T04:45:28.754Z,19.25
2022-11-09T04:48:00.423Z,18.58
2022-11-09T04:50:29.016Z,19.53
2022-11-09T04:53:07.566Z,18.38
2022-11-09T04:55:35.606Z,18.65
2022-11-09T04:58:03.046Z,18.15
2022-11-09T05:00:31.051Z,18.92
2022-11-09T05:03:02.666Z,20.03
2022-11-09T05:05:30.260Z,19.85
2022-11-09T05:07:57.633Z,19.50
2022-11-09T05:10:24.914Z,20.60
2022-11-09T05:13:01.424Z,19.52
2022-11-09T05:15:29.310Z,18.23
2022-11-09T05:17:57.272Z,19.02
2022-11-09T05:20:25.736Z,20.40
2022-11-09T05:23:13.325Z,21.30
2022-11-09T05:25:40.582Z,20.90
2022-11-09T05:28:09.655Z,19.77
2022-11-09T05:30:38.934Z,21.55
2022-11-09T05:33:06.630Z,20.25
2022-11-09T05:35:34.528Z,21.35
2022-11-09T05:38:01.904Z,21.58
2022-11-09T05:40:29.335Z,20.93
2022-11-09T05:42:57.090Z,21.50
2022-11-09T05:45:43.119Z,21.70
2022-11-09T05:48:13.496Z,20.33
2022-11-09T05:50:41.598Z,20.52
2022-11-09T05:53:28.157Z,19.13
2022-11-09T05:55:55.764Z,19.80
2022-11-09T05:58:23.199Z,19.30
2022-11-09T06:00:50.737Z,18.60
2022-11-09T06:03:18.551Z,18.85
2022-11-09T06:05:47.135Z,18.03
2022-11-09T06:08:15.935Z,19.02
2022-11-09T06:10:43.542Z,17.58
2022-11-09T06:13:11.481Z,17.95
2022-11-09T06:15:38.930Z,18.15
2022-11-09T06:18:06.505Z,19.13
2022-11-09T06:20:33.888Z,17.88
2022-11-09T06:23:03.778Z,18.30
2022-11-09T06:25:33.641Z,18.35
2022-11-09T06:28:01.773Z,18.27
2022-11-09T06:30:29.414Z,18.40
2022-11-09T06:33:03.567Z,19.30
2022-11-09T06:35:31.091Z,20.52
2022-11-09T06:38:00.168Z,19.48
2022-11-09T06:40:27.784Z,20.58
2022-11-09T06:42:59.548Z,18.47
2022-11-09T06:45:28.772Z,18.60
2022-11-09T06:48:00.608Z,17.60
2022-11-09T06:50:29.849Z,17.88
2022-11-09T06:53:03.426Z,17.42
2022-11-09T06:55:32.252Z,16.57
2022-11-09T06:58:00.262Z,16.30
2022-11-09T07:00:28.708Z,17.33
2022-11-09T07:02:56.210Z,17.95
2022-11-09T07:05:24.268Z,17.27
2022-11-09T07:07:51.594Z,16.77
2022-11-09T07:10:19.199Z,15.88
2022-11-09T07:12:46.801Z,17.90
2022-11-09T07:15:14.454Z,16.15
2022-11-09T07:17:41.873Z,17.02
2022-11-09T07:20:11.229Z,16.53
2022-11-09T07:22:40.133Z,17.13
2022-11-09T07:25:08.598Z,17.00
2022-11-09T07:27:36.529Z,16.75
2022-11-09T07:30:04.862Z,16.55
2022-11-09T07:35:24.645Z,16.00
2022-11-09T07:37:51.930Z,16.73
2022-11-09T07:40:19.790Z,15.75
2022-11-09T07:42:47.265Z,16.42
2022-11-09T07:45:14.883Z,14.77
2022-11-09T07:47:42.281Z,16.70
2022-11-09T07:50:10.076Z,16.52
2022-11-09T07:52:37.349Z,15.57
2022-11-09T07:55:04.981Z,15.35
2022-11-09T07:57:32.215Z,15.27
2022-11-09T07:59:59.756Z,15.75
2022-11-09T08:02:27.102Z,17.33
2022-11-09T08:04:54.646Z,15.20
2022-11-09T08:07:23.887Z,17.42
2022-11-09T08:09:51.517Z,16.63
2022-11-09T08:12:18.888Z,17.02
2022-11-09T08:14:46.214Z,17.17
2022-11-09T08:17:14.175Z,16.38
2022-11-09T08:19:41.505Z,16.73
2022-11-09T08:22:09.522Z,15.47
2022-11-09T08:24:36.827Z,17.15
2022-11-09T08:27:04.179Z,16.02
2022-11-09T08:29:31.602Z,15.68
2022-11-09T08:31:58.962Z,16.83
2022-11-09T08:34:26.665Z,15.80
2022-11-09T08:36:54.107Z,16.27
2022-11-09T08:39:23.880Z,15.73
2022-11-09T08:41:51.194Z,15.40
2022-11-09T08:44:18.655Z,16.23
2022-11-09T08:46:46.039Z,16.17
2022-11-09T08:49:13.645Z,13.98
2022-11-09T08:51:41.311Z,14.75
2022-11-09T08:54:09.328Z,15.25
2022-11-09T08:56:36.651Z,14.25
2022-11-09T08:59:03.930Z,14.73
2022-11-09T09:01:31.295Z,14.95
2022-11-09T09:03:58.634Z,14.70
2022-11-09T09:06:30.868Z,15.10
2022-11-09T09:08:58.941Z,15.65
2022-11-09T09:11:26.495Z,16.33
2022-11-09T09:13:53.809Z,14.40
2022-11-09T09:16:21.130Z,15.32
2022-11-09T09:18:49.195Z,15.00
2022-11-09T09:21:16.505Z,14.25
2022-11-09T09:23:43.974Z,15.53
2022-11-09T09:26:11.599Z,14.73
2022-11-09T09:28:39.286Z,14.02
2022-11-09T09:31:07.160Z,15.13
2022-11-09T09:33:34.602Z,14.20
2022-11-09T09:36:01.892Z,13.83
2022-11-09T09:38:30.866Z,15.07
2022-11-09T09:41:03.811Z,15.18
2022-11-09T09:43:46.508Z,14.30
2022-11-09T09:46:23.183Z,14.27
2022-11-09T09:49:15.339Z,15.13
2022-11-09T09:51:50.417Z,15.43
2022-11-09T09:54:40.507Z,14.15
2022-11-09T09:57:19.076Z,14.50
2022-11-09T09:59:53.354Z,14.00
2022-11-09T10:02:25.032Z,14.17
2022-11-09T10:04:55.460Z,14.90
2022-11-09T10:07:45.777Z,13.70
2022-11-09T10:10:28.229Z,13.50
2022-11-09T10:13:14.101Z,13.73
2022-11-09T10:16:06.619Z,14.13
2022-11-09T10:19:15.469Z,14.63
2022-11-09T10:22:30.672Z,14.73
2022-11-09T10:27:58.440Z,13.98
2022-11-09T10:30:27.210Z,14.60
2022-11-09T10:32:57.768Z,14.65
2022-11-09T10:35:37.755Z,14.27
2022-11-09T10:38:05.073Z,14.23
2022-11-09T10:40:38.984Z,14.23
2022-11-09T10:43:24.716Z,13.87
2022-11-09T10:46:10.657Z,13.77
2022-11-09T10:48:56.878Z,13.50
2022-11-09T10:51:46.756Z,13.07
2022-11-09T10:54:37.270Z,12.68
2022-11-09T10:57:25.177Z,12.23
2022-11-09T11:00:19.788Z,14.23
2022-11-09T11:03:17.307Z,14.40
2022-11-09T11:06:17.365Z,17.40
2022-11-09T11:09:06.369Z,18.23
2022-11-09T11:12:16.823Z,17.33
2022-11-09T11:15:02.996Z,17.52
2022-11-09T11:17:49.655Z,17.50
2022-11-09T11:20:40.193Z,17.48
2022-11-09T11:23:26.996Z,15.23
2022-11-09T11:26:27.704Z,16.87
2022-11-09T11:29:19.924Z,16.70
2022-11-09T11:32:14.140Z,17.20
2022-11-09T11:35:01.667Z,18.60
2022-11-09T11:38:07.490Z,19.50
2022-11-09T11:41:30.990Z,18.20
2022-11-09T11:44:56.692Z,18.58
2022-11-09T11:48:13.750Z,18.90
2022-11-09T11:51:17.391Z,17.58
2022-11-09T11:54:15.152Z,18.30
2022-11-09T11:57:23.577Z,16.27
2022-11-09T12:00:15.677Z,16.02
2022-11-09T12:03:15.277Z,15.75
2022-11-09T12:06:23.482Z,14.40
2022-11-09T12:09:29.450Z,14.93
2022-11-09T12:12:41.767Z,15.40
2022-11-09T12:15:45.053Z,15.32
2022-11-09T12:18:53.705Z,13.57
2022-11-09T12:22:07.445Z,14.00
2022-11-09T12:25:16.819Z,12.27
2022-11-09T12:28:31.154Z,12.07
2022-11-09T12:31:27.867Z,11.30
2022-11-09T12:34:36.532Z,12.90
2022-11-09T12:37:28.386Z,12.23
2022-11-09T12:40:28.019Z,12.10
2022-11-09T12:43:19.717Z,11.77
2022-11-09T12:46:07.247Z,13.75
2022-11-09T12:48:55.831Z,12.90
2022-11-09T12:51:42.109Z,12.98
2022-11-09T12:54:28.455Z,11.15
2022-11-09T12:57:23.172Z,11.40
2022-11-09T13:00:35.001Z,11.35
2022-11-09T13:03:27.207Z,11.65
2022-11-09T13:06:25.624Z,11.45
2022-11-09T13:09:24.755Z,11.73
2022-11-09T13:12:38.005Z,11.13
2022-11-09T13:15:27.144Z,11.50
2022-11-09T13:18:26.885Z,12.82
2022-11-09T13:21:33.744Z,12.65
2022-11-09T13:24:31.376Z,11.68
2022-11-09T13:27:43.267Z,11.23
2022-11-09T13:30:39.737Z,11.77
2022-11-09T13:33:30.271Z,11.68
2022-11-09T13:36:17.837Z,12.38
2022-11-09T13:39:32.399Z,12.13
2022-11-09T13:42:32.090Z,11.47
2022-11-09T13:45:27.295Z,13.25
2022-11-09T13:48:31.683Z,12.20
2022-11-09T13:51:38.468Z,12.40
2022-11-09T13:54:35.608Z,11.30
2022-11-09T13:57:24.186Z,11.23
2022-11-09T14:00:23.637Z,11.25
2022-11-09T14:03:36.224Z,12.27
2022-11-09T14:06:22.928Z,11.80
2022-11-09T14:09:17.566Z,10.80
2022-11-09T14:12:16.401Z,12.07
2022-11-09T14:15:07.595Z,11.35
2022-11-09T14:18:24.832Z,10.90
2022-11-09T14:21:19.705Z,11.32
2022-11-09T14:24:20.665Z,11.75
2022-11-09T14:27:09.572Z,11.43
2022-11-09T14:30:02.839Z,12.60
2022-11-09T14:32:54.451Z,13.02
2022-11-09T14:35:40.519Z,12.75
2022-11-09T14:38:30.091Z,13.35
2022-11-09T14:41:28.019Z,13.60
2022-11-09T14:44:25.662Z,13.40
2022-11-09T14:47:46.200Z,13.43
2022-11-09T14:50:36.666Z,12.27
2022-11-09T14:53:27.649Z,12.05
2022-11-09T14:56:18.261Z,13.67
2022-11-09T14:59:09.343Z,13.23
2022-11-09T15:01:58.071Z,12.27
2022-11-09T15:04:59.146Z,13.40
2022-11-09T15:07:48.390Z,12.25
2022-11-09T15:10:35.411Z,14.10
2022-11-09T15:13:29.824Z,14.05
2022-11-09T15:16:28.004Z,14.63
2022-11-09T15:19:25.110Z,14.18
2022-11-09T15:22:48.445Z,13.77
2022-11-09T15:25:52.905Z,13.27
2022-11-09T15:28:49.518Z,12.45
2022-11-09T15:31:35.250Z,12.15
2022-11-09T15:34:32.350Z,12.77
2022-11-09T15:37:26.254Z,13.27
2022-11-09T15:40:15.164Z,13.93
2022-11-09T15:43:01.025Z,14.52
2022-11-09T15:45:47.094Z,13.63
2022-11-09T15:48:34.060Z,13.20
2022-11-09T15:51:20.415Z,13.77
2022-11-09T15:54:06.589Z,12.90
2022-11-09T15:56:53.247Z,13.48
2022-11-09T15:59:39.370Z,12.43
2022-11-09T16:02:25.555Z,12.50
2022-11-09T16:05:11.159Z,11.82
2022-11-09T16:07:57.200Z,11.90
2022-11-09T16:10:44.660Z,11.63
2022-11-09T16:13:30.632Z,12.02
2022-11-09T16:16:16.539Z,11.25
2022-11-09T16:19:02.471Z,12.70
2022-11-09T16:21:48.909Z,13.47
2022-11-09T16:24:34.825Z,13.40
2022-11-09T16:27:49.646Z,15.35
2022-11-09T16:30:28.469Z,15.45
2022-11-09T16:33:17.353Z,15.02
2022-11-09T16:36:16.641Z,16.00
2022-11-09T16:39:06.980Z,16.08
2022-11-09T16:41:53.449Z,17.15
2022-11-09T16:44:43.582Z,19.17
2022-11-09T16:47:29.758Z,21.85
2022-11-09T16:50:16.205Z,20.70
2022-11-09T16:53:02.057Z,19.93
2022-11-09T16:55:48.144Z,21.70
2022-11-09T16:58:34.424Z,21.67
2022-11-09T17:01:23.775Z,21.75
2022-11-09T17:04:10.067Z,21.92
2022-11-09T17:06:56.449Z,22.37
2022-11-09T17:09:42.645Z,22.40
2022-11-09T17:12:30.957Z,23.20
2022-11-09T17:15:17.377Z,22.45
2022-11-09T17:18:03.192Z,22.90
2022-11-09T17:20:50.936Z,23.23
2022-11-09T17:23:36.594Z,24.42
2022-11-09T17:26:23.273Z,24.75
2022-11-09T17:29:10.183Z,24.05
2022-11-09T17:31:56.369Z,24.30
2022-11-09T17:34:42.232Z,24.23
2022-11-09T17:37:28.960Z,25.08
2022-11-09T17:40:15.280Z,24.52
2022-11-09T17:43:01.197Z,26.40
2022-11-09T17:45:47.165Z,26.45
2022-11-09T17:48:35.090Z,26.10
2022-11-09T17:51:21.697Z,25.55
2022-11-09T17:54:07.656Z,25.63
2022-11-09T17:56:53.563Z,25.67
2022-11-09T17:59:39.560Z,24.27
2022-11-09T18:02:26.212Z,25.53
2022-11-09T18:05:12.192Z,24.90
2022-11-09T18:07:58.315Z,27.52
2022-11-09T18:10:45.714Z,26.50
2022-11-09T18:13:31.452Z,25.40
2022-11-09T18:16:20.154Z,23.57
2022-11-09T18:19:06.209Z,22.35
2022-11-09T18:21:51.943Z,20.58
2022-11-09T18:24:37.974Z,18.48
2022-11-09T18:27:27.544Z,19.27
2022-11-09T18:30:19.201Z,18.57
2022-11-09T18:33:06.484Z,15.38
2022-11-09T18:36:01.109Z,16.70
2022-11-09T18:38:47.498Z,15.73
2022-11-09T18:41:33.334Z,14.27
2022-11-09T18:44:19.020Z,14.67
2022-11-09T18:47:05.949Z,14.02
2022-11-09T18:49:53.038Z,14.75
2022-11-09T18:52:39.072Z,13.05
2022-11-09T18:55:25.251Z,14.45
2022-11-09T18:58:11.193Z,14.10
2022-11-09T19:01:01.675Z,15.32
2022-11-09T19:03:47.609Z,15.77
2022-11-09T19:06:35.787Z,14.55
2022-11-09T19:09:35.495Z,13.80
2022-11-09T19:12:21.397Z,14.00
2022-11-09T19:15:07.538Z,13.20
2022-11-09T19:17:53.680Z,13.85
2022-11-09T19:20:39.625Z,15.40
2022-11-09T19:23:32.822Z,15.50
2022-11-09T19:26:21.736Z,14.13
2022-11-09T19:29:08.565Z,14.50
2022-11-09T19:31:55.267Z,13.75
2022-11-09T19:34:43.063Z,14.05
2022-11-09T19:37:29.251Z,13.85
2022-11-09T19:40:16.543Z,13.87
2022-11-09T19:43:02.782Z,16.00
2022-11-09T19:45:48.450Z,13.48
2022-11-09T19:48:37.879Z,13.60
2022-11-09T19:51:24.416Z,13.48
2022-11-09T19:54:12.094Z,13.27
2022-11-09T19:56:58.385Z,12.98
2022-11-09T19:59:44.697Z,14.10
2022-11-09T20:02:31.505Z,14.57
2022-11-09T20:05:17.575Z,13.50
2022-11-09T20:08:04.583Z,13.87
2022-11-09T20:10:50.710Z,13.55
2022-11-09T20:13:40.916Z,13.75
2022-11-09T20:16:27.209Z,14.15
2022-11-09T20:19:14.465Z,13.60
2022-11-09T20:22:00.634Z,13.50
2022-11-09T20:24:46.888Z,13.80
2022-11-09T20:27:32.680Z,15.25
2022-11-09T20:30:18.841Z,13.57
2022-11-09T20:33:05.517Z,14.48
2022-11-09T20:35:53.723Z,13.50
2022-11-09T20:38:40.181Z,14.60
2022-11-09T20:41:25.965Z,16.17
2022-11-09T20:44:11.911Z,17.02
2022-11-09T20:46:57.710Z,16.27
2022-11-09T20:49:43.823Z,14.83
2022-11-09T20:52:29.592Z,13.30
2022-11-09T20:55:15.637Z,15.00
2022-11-09T20:58:01.573Z,14.30
2022-11-09T21:00:47.460Z,14.45
2022-11-09T21:03:34.682Z,13.60
2022-11-09T21:06:22.008Z,14.07
2022-11-09T21:09:08.076Z,13.73
2022-11-09T21:12:12.756Z,13.90
2022-11-09T21:14:58.766Z,14.35
2022-11-09T21:17:44.617Z,14.20
2022-11-09T21:20:30.720Z,15.07
2022-11-09T21:23:37.073Z,15.45
2022-11-09T21:26:42.049Z,14.35
2022-11-09T21:29:46.499Z,14.10
2022-11-09T21:32:32.481Z,14.67
2022-11-09T21:35:18.533Z,14.93
2022-11-09T21:38:04.616Z,15.98
2022-11-09T21:40:50.962Z,15.23
2022-11-09T21:43:36.665Z,14.93
2022-11-09T21:46:24.282Z,16.13
2022-11-09T21:49:12.556Z,15.88
2022-11-09T21:51:59.433Z,15.45
2022-11-09T21:54:45.334Z,15.95
2022-11-09T21:57:31.305Z,15.95
2022-11-09T22:00:18.104Z,15.83
2022-11-09T22:03:04.361Z,16.38
2022-11-09T22:05:50.254Z,17.02
2022-11-09T22:08:36.401Z,16.10
2022-11-09T22:11:45.508Z,16.92
2022-11-09T22:14:49.938Z,16.30
2022-11-09T22:17:35.761Z,15.98
2022-11-09T22:20:40.664Z,15.38
2022-11-09T22:23:26.797Z,15.25
2022-11-09T22:26:12.739Z,15.95
2022-11-09T22:28:59.562Z,15.90
2022-11-09T22:31:46.876Z,15.77
2022-11-09T22:34:32.603Z,16.90
2022-11-09T22:37:18.849Z,16.48
2022-11-09T22:40:06.090Z,15.15
2022-11-09T22:42:58.225Z,15.43
2022-11-09T22:45:44.984Z,15.50
2022-11-09T22:48:35.531Z,15.05
2022-11-09T22:51:21.392Z,16.13
2022-11-09T22:54:08.667Z,15.18
2022-11-09T22:56:55.683Z,15.60
2022-11-09T22:59:42.140Z,14.80
2022-11-09T23:02:29.358Z,14.50
2022-11-09T23:05:15.428Z,15.68
2022-11-09T23:08:01.353Z,16.15
2022-11-09T23:10:55.753Z,15.57
2022-11-09T23:13:42.429Z,15.45
2022-11-09T23:16:28.389Z,15.57
2022-11-09T23:19:14.352Z,15.25
2022-11-09T23:22:00.360Z,15.65
2022-11-09T23:25:04.940Z,16.00
2022-11-09T23:27:52.295Z,15.40
2022-11-09T23:30:38.409Z,15.88
2022-11-09T23:33:24.565Z,16.10
2022-11-09T23:36:11.081Z,16.10
2022-11-09T23:38:57.385Z,17.40
2022-11-09T23:41:43.512Z,16.98
2022-11-09T23:44:29.155Z,16.88
2022-11-09T23:47:15.161Z,17.23
2022-11-09T23:50:01.132Z,16.85
2022-11-09T23:52:47.257Z,18.23
2022-11-09T23:55:33.065Z,17.40
2022-11-09T23:58:19.621Z,18.10
